sensor_id;sensor_type;location;lat;lon;timestamp;P1;durP1;ratioP1;P2;durP2;ratioP2
34459;SDS011;20704;51.260;22.558;2023-11-21T00:01:25;78.13;;;11.77;;
34459;SDS011;20704;51.260;22.558;2023-11-21T00:03:28;39.90;;;10.37;;
34459;SDS011;20704;51.260;22.558;2023-11-21T00:05:30;27.60;;;9.63;;
34459;SDS011;20704;51.260;22.558;2023-11-21T00:07:32;27.50;;;7.90;;
34459;SDS011;20704;51.260;22.558;2023-11-21T00:09:35;32.67;;;9.83;;
34459;SDS011;20704;51.260;22.558;2023-11-21T00:11:38;35.50;;;9.53;;
34459;SDS011;20704;51.260;22.558;2023-11-21T00:13:40;54.13;;;11.30;;
34459;SDS011;20704;51.260;22.558;2023-11-21T00:15:43;51.10;;;10.90;;
34459;SDS011;20704;51.260;22.558;2023-11-21T00:17:45;34.03;;;10.83;;
34459;SDS011;20704;51.260;22.558;2023-11-21T00:19:49;41.03;;;11.90;;
34459;SDS011;20704;51.260;22.558;2023-11-21T00:21:51;32.50;;;9.50;;
34459;SDS011;20704;51.260;22.558;2023-11-21T00:23:53;32.97;;;10.33;;
34459;SDS011;20704;51.260;22.558;2023-11-21T00:25:56;30.80;;;9.50;;
34459;SDS011;20704;51.260;22.558;2023-11-21T00:27:58;35.87;;;11.83;;
34459;SDS011;20704;51.260;22.558;2023-11-21T00:30:03;67.77;;;11.73;;
34459;SDS011;20704;51.260;22.558;2023-11-21T00:32:07;39.43;;;12.63;;
34459;SDS011;20704;51.260;22.558;2023-11-21T00:34:13;42.40;;;11.73;;
34459;SDS011;20704;51.260;22.558;2023-11-21T00:36:16;35.20;;;10.87;;
34459;SDS011;20704;51.260;22.558;2023-11-21T00:38:19;49.03;;;10.43;;
34459;SDS011;20704;51.260;22.558;2023-11-21T00:40:22;31.63;;;10.07;;
34459;SDS011;20704;51.260;22.558;2023-11-21T00:42:24;41.30;;;10.70;;
34459;SDS011;20704;51.260;22.558;2023-11-21T00:44:27;47.80;;;11.33;;
34459;SDS011;20704;51.260;22.558;2023-11-21T00:46:29;33.27;;;10.20;;
34459;SDS011;20704;51.260;22.558;2023-11-21T00:48:32;60.50;;;10.63;;
34459;SDS011;20704;51.260;22.558;2023-11-21T00:50:34;58.90;;;11.77;;
34459;SDS011;20704;51.260;22.558;2023-11-21T00:52:36;40.90;;;10.33;;
34459;SDS011;20704;51.260;22.558;2023-11-21T00:54:39;77.37;;;13.43;;
34459;SDS011;20704;51.260;22.558;2023-11-21T00:56:41;39.93;;;10.70;;
34459;SDS011;20704;51.260;22.558;2023-11-21T00:58:43;47.00;;;11.00;;
34459;SDS011;20704;51.260;22.558;2023-11-21T01:00:48;71.03;;;13.00;;
34459;SDS011;20704;51.260;22.558;2023-11-21T01:02:50;118.20;;;13.23;;
34459;SDS011;20704;51.260;22.558;2023-11-21T01:04:53;70.50;;;11.87;;
34459;SDS011;20704;51.260;22.558;2023-11-21T01:06:56;43.70;;;11.47;;
34459;SDS011;20704;51.260;22.558;2023-11-21T01:08:58;69.40;;;12.00;;
34459;SDS011;20704;51.260;22.558;2023-11-21T01:11:01;41.53;;;10.93;;
34459;SDS011;20704;51.260;22.558;2023-11-21T01:13:03;69.07;;;12.30;;
34459;SDS011;20704;51.260;22.558;2023-11-21T01:15:08;55.53;;;10.90;;
34459;SDS011;20704;51.260;22.558;2023-11-21T01:17:13;80.03;;;12.73;;
34459;SDS011;20704;51.260;22.558;2023-11-21T01:19:16;57.80;;;11.80;;
34459;SDS011;20704;51.260;22.558;2023-11-21T01:21:19;72.33;;;13.47;;
34459;SDS011;20704;51.260;22.558;2023-11-21T01:23:21;101.87;;;15.70;;
34459;SDS011;20704;51.260;22.558;2023-11-21T01:25:24;61.17;;;12.87;;
34459;SDS011;20704;51.260;22.558;2023-11-21T01:27:26;90.53;;;13.77;;
34459;SDS011;20704;51.260;22.558;2023-11-21T01:29:28;82.07;;;13.17;;
34459;SDS011;20704;51.260;22.558;2023-11-21T01:31:30;53.77;;;10.27;;
34459;SDS011;20704;51.260;22.558;2023-11-21T01:33:33;61.03;;;13.53;;
34459;SDS011;20704;51.260;22.558;2023-11-21T01:35:35;45.10;;;12.03;;
34459;SDS011;20704;51.260;22.558;2023-11-21T01:37:38;55.87;;;11.53;;
34459;SDS011;20704;51.260;22.558;2023-11-21T01:39:40;53.93;;;11.50;;
34459;SDS011;20704;51.260;22.558;2023-11-21T01:41:43;77.70;;;13.63;;
34459;SDS011;20704;51.260;22.558;2023-11-21T01:43:47;42.53;;;12.07;;
34459;SDS011;20704;51.260;22.558;2023-11-21T01:45:50;42.90;;;11.67;;
34459;SDS011;20704;51.260;22.558;2023-11-21T01:47:52;126.57;;;17.07;;
34459;SDS011;20704;51.260;22.558;2023-11-21T01:49:58;43.90;;;12.30;;
34459;SDS011;20704;51.260;22.558;2023-11-21T01:52:01;50.87;;;12.17;;
34459;SDS011;20704;51.260;22.558;2023-11-21T01:54:06;65.33;;;11.97;;
34459;SDS011;20704;51.260;22.558;2023-11-21T01:56:18;50.10;;;10.63;;
34459;SDS011;20704;51.260;22.558;2023-11-21T01:58:21;82.17;;;14.07;;
34459;SDS011;20704;51.260;22.558;2023-11-21T02:00:23;58.60;;;12.03;;
34459;SDS011;20704;51.260;22.558;2023-11-21T02:02:27;74.17;;;12.90;;
34459;SDS011;20704;51.260;22.558;2023-11-21T02:04:30;114.00;;;17.10;;
34459;SDS011;20704;51.260;22.558;2023-11-21T02:06:34;73.27;;;13.37;;
34459;SDS011;20704;51.260;22.558;2023-11-21T02:08:36;79.60;;;15.90;;
34459;SDS011;20704;51.260;22.558;2023-11-21T02:10:39;112.23;;;17.73;;
34459;SDS011;20704;51.260;22.558;2023-11-21T02:12:42;110.83;;;15.17;;
34459;SDS011;20704;51.260;22.558;2023-11-21T02:17:11;68.77;;;11.10;;
34459;SDS011;20704;51.260;22.558;2023-11-21T02:19:17;46.70;;;11.17;;
34459;SDS011;20704;51.260;22.558;2023-11-21T02:21:24;59.88;;;12.95;;
34459;SDS011;20704;51.260;22.558;2023-11-21T02:23:27;60.67;;;11.93;;
34459;SDS011;20704;51.260;22.558;2023-11-21T02:25:31;64.20;;;12.30;;
34459;SDS011;20704;51.260;22.558;2023-11-21T02:27:36;55.93;;;11.83;;
34459;SDS011;20704;51.260;22.558;2023-11-21T02:29:38;84.10;;;14.03;;
34459;SDS011;20704;51.260;22.558;2023-11-21T02:31:41;112.70;;;16.93;;
34459;SDS011;20704;51.260;22.558;2023-11-21T02:33:49;52.67;;;11.10;;
34459;SDS011;20704;51.260;22.558;2023-11-21T02:35:52;41.20;;;10.33;;
34459;SDS011;20704;51.260;22.558;2023-11-21T02:37:56;59.40;;;11.03;;
34459;SDS011;20704;51.260;22.558;2023-11-21T02:39:59;47.67;;;11.43;;
34459;SDS011;20704;51.260;22.558;2023-11-21T02:42:01;66.63;;;13.50;;
34459;SDS011;20704;51.260;22.558;2023-11-21T02:44:04;45.30;;;10.87;;
34459;SDS011;20704;51.260;22.558;2023-11-21T02:46:08;42.77;;;11.80;;
34459;SDS011;20704;51.260;22.558;2023-11-21T02:48:10;60.33;;;11.97;;
34459;SDS011;20704;51.260;22.558;2023-11-21T02:50:13;48.93;;;10.47;;
34459;SDS011;20704;51.260;22.558;2023-11-21T02:52:16;86.37;;;13.73;;
34459;SDS011;20704;51.260;22.558;2023-11-21T02:54:18;122.90;;;16.17;;
34459;SDS011;20704;51.260;22.558;2023-11-21T02:56:21;62.80;;;11.43;;
34459;SDS011;20704;51.260;22.558;2023-11-21T02:58:23;49.10;;;10.53;;
34459;SDS011;20704;51.260;22.558;2023-11-21T03:00:26;60.37;;;12.73;;
34459;SDS011;20704;51.260;22.558;2023-11-21T03:02:28;51.20;;;9.87;;
34459;SDS011;20704;51.260;22.558;2023-11-21T03:04:31;53.87;;;10.50;;
34459;SDS011;20704;51.260;22.558;2023-11-21T03:06:35;65.77;;;12.37;;
34459;SDS011;20704;51.260;22.558;2023-11-21T03:08:38;67.60;;;11.27;;
34459;SDS011;20704;51.260;22.558;2023-11-21T03:10:40;59.57;;;9.43;;
34459;SDS011;20704;51.260;22.558;2023-11-21T03:12:42;60.63;;;11.43;;
34459;SDS011;20704;51.260;22.558;2023-11-21T03:14:46;41.47;;;9.20;;
34459;SDS011;20704;51.260;22.558;2023-11-21T03:16:49;39.83;;;8.60;;
34459;SDS011;20704;51.260;22.558;2023-11-21T03:18:51;52.80;;;10.30;;
34459;SDS011;20704;51.260;22.558;2023-11-21T03:20:54;42.60;;;9.83;;
34459;SDS011;20704;51.260;22.558;2023-11-21T03:22:56;76.53;;;12.17;;
34459;SDS011;20704;51.260;22.558;2023-11-21T03:24:59;73.47;;;12.50;;
34459;SDS011;20704;51.260;22.558;2023-11-21T03:27:01;39.53;;;8.80;;
34459;SDS011;20704;51.260;22.558;2023-11-21T03:29:04;61.67;;;11.97;;
34459;SDS011;20704;51.260;22.558;2023-11-21T03:31:06;42.27;;;9.80;;
34459;SDS011;20704;51.260;22.558;2023-11-21T03:33:11;37.07;;;10.43;;
34459;SDS011;20704;51.260;22.558;2023-11-21T03:35:14;48.10;;;10.10;;
34459;SDS011;20704;51.260;22.558;2023-11-21T03:37:16;50.90;;;10.40;;
34459;SDS011;20704;51.260;22.558;2023-11-21T03:39:19;53.07;;;9.40;;
34459;SDS011;20704;51.260;22.558;2023-11-21T03:41:22;26.53;;;8.07;;
34459;SDS011;20704;51.260;22.558;2023-11-21T03:43:24;41.20;;;8.50;;
34459;SDS011;20704;51.260;22.558;2023-11-21T03:45:27;25.60;;;8.33;;
34459;SDS011;20704;51.260;22.558;2023-11-21T03:47:30;43.77;;;9.57;;
34459;SDS011;20704;51.260;22.558;2023-11-21T03:49:32;31.23;;;8.30;;
34459;SDS011;20704;51.260;22.558;2023-11-21T03:51:35;24.90;;;7.73;;
34459;SDS011;20704;51.260;22.558;2023-11-21T03:53:38;35.47;;;9.30;;
34459;SDS011;20704;51.260;22.558;2023-11-21T03:55:40;29.00;;;9.30;;
34459;SDS011;20704;51.260;22.558;2023-11-21T03:57:43;41.47;;;9.10;;
34459;SDS011;20704;51.260;22.558;2023-11-21T03:59:45;34.60;;;8.80;;
34459;SDS011;20704;51.260;22.558;2023-11-21T04:01:48;47.57;;;8.87;;
34459;SDS011;20704;51.260;22.558;2023-11-21T04:03:50;39.27;;;9.10;;
34459;SDS011;20704;51.260;22.558;2023-11-21T04:05:53;55.30;;;8.50;;
34459;SDS011;20704;51.260;22.558;2023-11-21T04:07:55;37.77;;;9.87;;
34459;SDS011;20704;51.260;22.558;2023-11-21T04:09:59;42.60;;;8.47;;
34459;SDS011;20704;51.260;22.558;2023-11-21T04:12:01;63.10;;;11.40;;
34459;SDS011;20704;51.260;22.558;2023-11-21T04:14:04;31.87;;;10.73;;
34459;SDS011;20704;51.260;22.558;2023-11-21T04:16:07;69.93;;;12.77;;
34459;SDS011;20704;51.260;22.558;2023-11-21T04:18:09;36.93;;;10.40;;
34459;SDS011;20704;51.260;22.558;2023-11-21T04:20:12;36.70;;;10.17;;
34459;SDS011;20704;51.260;22.558;2023-11-21T04:22:14;36.40;;;9.13;;
34459;SDS011;20704;51.260;22.558;2023-11-21T04:24:17;53.20;;;11.40;;
34459;SDS011;20704;51.260;22.558;2023-11-21T04:26:19;38.20;;;9.73;;
34459;SDS011;20704;51.260;22.558;2023-11-21T04:28:21;47.00;;;11.87;;
34459;SDS011;20704;51.260;22.558;2023-11-21T04:30:24;68.23;;;12.03;;
34459;SDS011;20704;51.260;22.558;2023-11-21T04:32:26;35.27;;;10.10;;
34459;SDS011;20704;51.260;22.558;2023-11-21T04:34:28;40.30;;;12.00;;
34459;SDS011;20704;51.260;22.558;2023-11-21T04:36:33;95.83;;;13.43;;
34459;SDS011;20704;51.260;22.558;2023-11-21T04:38:36;32.17;;;10.30;;
34459;SDS011;20704;51.260;22.558;2023-11-21T04:40:44;31.30;;;9.07;;
34459;SDS011;20704;51.260;22.558;2023-11-21T04:42:46;45.60;;;11.40;;
34459;SDS011;20704;51.260;22.558;2023-11-21T04:44:49;45.00;;;9.50;;
34459;SDS011;20704;51.260;22.558;2023-11-21T04:46:52;43.23;;;9.67;;
34459;SDS011;20704;51.260;22.558;2023-11-21T04:48:54;39.97;;;10.10;;
34459;SDS011;20704;51.260;22.558;2023-11-21T04:50:56;36.53;;;9.43;;
34459;SDS011;20704;51.260;22.558;2023-11-21T04:52:59;29.50;;;9.33;;
34459;SDS011;20704;51.260;22.558;2023-11-21T04:55:01;33.57;;;8.87;;
34459;SDS011;20704;51.260;22.558;2023-11-21T04:57:04;51.93;;;10.23;;
34459;SDS011;20704;51.260;22.558;2023-11-21T04:59:09;24.20;;;8.40;;
34459;SDS011;20704;51.260;22.558;2023-11-21T05:01:11;49.43;;;9.93;;
34459;SDS011;20704;51.260;22.558;2023-11-21T05:03:14;38.37;;;8.73;;
34459;SDS011;20704;51.260;22.558;2023-11-21T05:05:16;34.17;;;8.87;;
34459;SDS011;20704;51.260;22.558;2023-11-21T05:07:18;39.63;;;9.57;;
34459;SDS011;20704;51.260;22.558;2023-11-21T05:09:21;42.87;;;11.50;;
34459;SDS011;20704;51.260;22.558;2023-11-21T05:11:28;47.50;;;10.23;;
34459;SDS011;20704;51.260;22.558;2023-11-21T05:13:30;36.57;;;9.60;;
34459;SDS011;20704;51.260;22.558;2023-11-21T05:15:33;37.67;;;11.83;;
34459;SDS011;20704;51.260;22.558;2023-11-21T05:17:36;32.17;;;9.53;;
34459;SDS011;20704;51.260;22.558;2023-11-21T05:19:41;22.97;;;9.87;;
34459;SDS011;20704;51.260;22.558;2023-11-21T05:21:43;26.27;;;9.60;;
34459;SDS011;20704;51.260;22.558;2023-11-21T05:23:45;34.43;;;8.87;;
34459;SDS011;20704;51.260;22.558;2023-11-21T05:25:48;26.03;;;8.20;;
34459;SDS011;20704;51.260;22.558;2023-11-21T05:27:50;65.27;;;11.70;;
34459;SDS011;20704;51.260;22.558;2023-11-21T05:29:52;39.30;;;10.07;;
34459;SDS011;20704;51.260;22.558;2023-11-21T05:31:55;20.93;;;8.07;;
34459;SDS011;20704;51.260;22.558;2023-11-21T05:33:57;34.77;;;9.47;;
34459;SDS011;20704;51.260;22.558;2023-11-21T05:36:00;25.83;;;9.17;;
34459;SDS011;20704;51.260;22.558;2023-11-21T05:38:02;18.17;;;8.10;;
34459;SDS011;20704;51.260;22.558;2023-11-21T05:40:05;17.90;;;7.80;;
34459;SDS011;20704;51.260;22.558;2023-11-21T05:42:08;17.67;;;6.57;;
34459;SDS011;20704;51.260;22.558;2023-11-21T05:44:12;16.90;;;5.73;;
34459;SDS011;20704;51.260;22.558;2023-11-21T05:46:16;18.03;;;6.70;;
34459;SDS011;20704;51.260;22.558;2023-11-21T05:48:18;15.53;;;6.00;;
34459;SDS011;20704;51.260;22.558;2023-11-21T05:50:21;12.80;;;5.40;;
34459;SDS011;20704;51.260;22.558;2023-11-21T05:52:24;11.80;;;5.53;;
34459;SDS011;20704;51.260;22.558;2023-11-21T05:54:27;14.43;;;5.23;;
34459;SDS011;20704;51.260;22.558;2023-11-21T05:56:29;12.20;;;5.20;;
34459;SDS011;20704;51.260;22.558;2023-11-21T05:58:31;12.37;;;5.37;;
34459;SDS011;20704;51.260;22.558;2023-11-21T06:00:34;18.90;;;5.97;;
34459;SDS011;20704;51.260;22.558;2023-11-21T06:02:38;9.40;;;4.90;;
34459;SDS011;20704;51.260;22.558;2023-11-21T06:04:41;13.77;;;5.53;;
34459;SDS011;20704;51.260;22.558;2023-11-21T06:06:45;13.27;;;5.80;;
34459;SDS011;20704;51.260;22.558;2023-11-21T06:08:48;17.10;;;5.50;;
34459;SDS011;20704;51.260;22.558;2023-11-21T06:10:51;15.23;;;5.53;;
34459;SDS011;20704;51.260;22.558;2023-11-21T06:12:53;18.53;;;6.33;;
34459;SDS011;20704;51.260;22.558;2023-11-21T06:14:55;14.07;;;6.60;;
34459;SDS011;20704;51.260;22.558;2023-11-21T06:16:58;13.43;;;6.40;;
34459;SDS011;20704;51.260;22.558;2023-11-21T06:19:00;19.40;;;5.87;;
34459;SDS011;20704;51.260;22.558;2023-11-21T06:21:03;11.27;;;4.97;;
34459;SDS011;20704;51.260;22.558;2023-11-21T06:23:05;9.20;;;4.77;;
34459;SDS011;20704;51.260;22.558;2023-11-21T06:25:09;13.27;;;5.80;;
34459;SDS011;20704;51.260;22.558;2023-11-21T06:27:12;10.70;;;5.40;;
34459;SDS011;20704;51.260;22.558;2023-11-21T06:29:15;8.50;;;4.47;;
34459;SDS011;20704;51.260;22.558;2023-11-21T06:31:17;10.43;;;4.37;;
34459;SDS011;20704;51.260;22.558;2023-11-21T06:33:20;9.03;;;4.47;;
34459;SDS011;20704;51.260;22.558;2023-11-21T06:35:23;9.70;;;4.77;;
34459;SDS011;20704;51.260;22.558;2023-11-21T06:37:27;17.60;;;6.07;;
34459;SDS011;20704;51.260;22.558;2023-11-21T06:39:30;18.63;;;5.47;;
34459;SDS011;20704;51.260;22.558;2023-11-21T06:41:33;8.57;;;4.53;;
34459;SDS011;20704;51.260;22.558;2023-11-21T06:43:36;9.27;;;4.30;;
34459;SDS011;20704;51.260;22.558;2023-11-21T06:45:38;10.60;;;5.40;;
34459;SDS011;20704;51.260;22.558;2023-11-21T06:47:41;9.27;;;4.00;;
34459;SDS011;20704;51.260;22.558;2023-11-21T06:49:43;9.20;;;5.00;;
34459;SDS011;20704;51.260;22.558;2023-11-21T06:51:46;8.63;;;5.17;;
34459;SDS011;20704;51.260;22.558;2023-11-21T06:53:48;12.50;;;5.77;;
34459;SDS011;20704;51.260;22.558;2023-11-21T06:55:50;9.90;;;5.00;;
34459;SDS011;20704;51.260;22.558;2023-11-21T06:57:53;11.03;;;5.27;;
34459;SDS011;20704;51.260;22.558;2023-11-21T06:59:55;10.50;;;5.33;;
34459;SDS011;20704;51.260;22.558;2023-11-21T07:01:59;9.83;;;5.20;;
34459;SDS011;20704;51.260;22.558;2023-11-21T07:04:01;9.47;;;4.87;;
34459;SDS011;20704;51.260;22.558;2023-11-21T07:06:05;8.37;;;4.37;;
34459;SDS011;20704;51.260;22.558;2023-11-21T07:08:09;9.27;;;5.27;;
34459;SDS011;20704;51.260;22.558;2023-11-21T07:10:12;8.50;;;5.00;;
34459;SDS011;20704;51.260;22.558;2023-11-21T07:12:14;8.97;;;4.63;;
34459;SDS011;20704;51.260;22.558;2023-11-21T07:14:17;9.43;;;4.40;;
34459;SDS011;20704;51.260;22.558;2023-11-21T07:16:21;9.27;;;4.63;;
34459;SDS011;20704;51.260;22.558;2023-11-21T07:18:24;9.50;;;4.13;;
34459;SDS011;20704;51.260;22.558;2023-11-21T07:20:26;9.20;;;5.17;;
34459;SDS011;20704;51.260;22.558;2023-11-21T07:22:29;13.00;;;6.37;;
34459;SDS011;20704;51.260;22.558;2023-11-21T07:24:32;16.73;;;5.77;;
34459;SDS011;20704;51.260;22.558;2023-11-21T07:26:34;11.83;;;6.17;;
34459;SDS011;20704;51.260;22.558;2023-11-21T07:28:38;11.67;;;5.57;;
34459;SDS011;20704;51.260;22.558;2023-11-21T07:30:41;13.73;;;5.63;;
34459;SDS011;20704;51.260;22.558;2023-11-21T07:32:44;10.23;;;4.93;;
34459;SDS011;20704;51.260;22.558;2023-11-21T07:34:50;14.70;;;5.63;;
34459;SDS011;20704;51.260;22.558;2023-11-21T07:36:52;11.53;;;6.50;;
34459;SDS011;20704;51.260;22.558;2023-11-21T07:38:54;12.50;;;5.43;;
34459;SDS011;20704;51.260;22.558;2023-11-21T07:40:57;10.23;;;4.83;;
34459;SDS011;20704;51.260;22.558;2023-11-21T07:42:59;10.17;;;5.33;;
34459;SDS011;20704;51.260;22.558;2023-11-21T07:45:02;10.70;;;6.17;;
34459;SDS011;20704;51.260;22.558;2023-11-21T07:47:05;12.10;;;6.03;;
34459;SDS011;20704;51.260;22.558;2023-11-21T07:49:08;10.47;;;5.90;;
34459;SDS011;20704;51.260;22.558;2023-11-21T07:51:11;8.40;;;5.23;;
34459;SDS011;20704;51.260;22.558;2023-11-21T07:53:14;9.40;;;5.13;;
34459;SDS011;20704;51.260;22.558;2023-11-21T07:55:18;9.33;;;5.13;;
34459;SDS011;20704;51.260;22.558;2023-11-21T07:57:20;11.10;;;5.00;;
34459;SDS011;20704;51.260;22.558;2023-11-21T07:59:22;7.50;;;4.00;;
34459;SDS011;20704;51.260;22.558;2023-11-21T08:01:25;12.13;;;6.27;;
34459;SDS011;20704;51.260;22.558;2023-11-21T08:03:28;8.80;;;4.93;;
34459;SDS011;20704;51.260;22.558;2023-11-21T08:05:33;13.03;;;4.60;;
34459;SDS011;20704;51.260;22.558;2023-11-21T08:07:38;10.57;;;4.57;;
34459;SDS011;20704;51.260;22.558;2023-11-21T08:09:42;9.50;;;4.97;;
34459;SDS011;20704;51.260;22.558;2023-11-21T08:11:46;14.37;;;5.20;;
34459;SDS011;20704;51.260;22.558;2023-11-21T08:13:48;10.67;;;5.63;;
34459;SDS011;20704;51.260;22.558;2023-11-21T08:15:54;16.53;;;6.77;;
34459;SDS011;20704;51.260;22.558;2023-11-21T08:17:58;13.40;;;7.10;;
34459;SDS011;20704;51.260;22.558;2023-11-21T08:20:01;11.63;;;6.43;;
34459;SDS011;20704;51.260;22.558;2023-11-21T08:22:05;16.03;;;6.37;;
34459;SDS011;20704;51.260;22.558;2023-11-21T08:24:09;12.33;;;6.20;;
34459;SDS011;20704;51.260;22.558;2023-11-21T08:26:15;19.00;;;7.00;;
34459;SDS011;20704;51.260;22.558;2023-11-21T08:28:18;13.43;;;6.07;;
34459;SDS011;20704;51.260;22.558;2023-11-21T08:30:21;13.13;;;6.17;;
34459;SDS011;20704;51.260;22.558;2023-11-21T08:32:26;9.40;;;5.33;;
34459;SDS011;20704;51.260;22.558;2023-11-21T08:34:28;11.10;;;4.57;;
34459;SDS011;20704;51.260;22.558;2023-11-21T08:36:31;12.30;;;5.83;;
34459;SDS011;20704;51.260;22.558;2023-11-21T08:38:33;9.93;;;6.10;;
34459;SDS011;20704;51.260;22.558;2023-11-21T08:40:39;9.27;;;5.07;;
34459;SDS011;20704;51.260;22.558;2023-11-21T08:42:42;14.73;;;7.17;;
34459;SDS011;20704;51.260;22.558;2023-11-21T08:44:44;11.87;;;7.37;;
34459;SDS011;20704;51.260;22.558;2023-11-21T08:46:47;11.00;;;6.30;;
34459;SDS011;20704;51.260;22.558;2023-11-21T08:48:50;9.17;;;5.07;;
34459;SDS011;20704;51.260;22.558;2023-11-21T08:50:54;10.43;;;5.70;;
34459;SDS011;20704;51.260;22.558;2023-11-21T08:52:56;11.17;;;6.00;;
34459;SDS011;20704;51.260;22.558;2023-11-21T08:54:58;9.23;;;5.10;;
34459;SDS011;20704;51.260;22.558;2023-11-21T08:57:04;11.40;;;5.87;;
34459;SDS011;20704;51.260;22.558;2023-11-21T08:59:06;10.93;;;6.20;;
34459;SDS011;20704;51.260;22.558;2023-11-21T09:01:10;10.43;;;6.63;;
34459;SDS011;20704;51.260;22.558;2023-11-21T09:03:14;12.30;;;6.83;;
34459;SDS011;20704;51.260;22.558;2023-11-21T09:05:16;13.80;;;7.27;;
34459;SDS011;20704;51.260;22.558;2023-11-21T09:07:19;14.47;;;7.30;;
34459;SDS011;20704;51.260;22.558;2023-11-21T09:09:22;11.00;;;6.27;;
34459;SDS011;20704;51.260;22.558;2023-11-21T09:11:35;12.50;;;6.60;;
34459;SDS011;20704;51.260;22.558;2023-11-21T09:13:38;10.00;;;5.90;;
34459;SDS011;20704;51.260;22.558;2023-11-21T09:15:40;13.37;;;6.47;;
34459;SDS011;20704;51.260;22.558;2023-11-21T09:17:42;13.00;;;6.47;;
34459;SDS011;20704;51.260;22.558;2023-11-21T09:19:46;12.17;;;6.73;;
34459;SDS011;20704;51.260;22.558;2023-11-21T09:21:53;12.40;;;7.57;;
34459;SDS011;20704;51.260;22.558;2023-11-21T09:23:55;14.10;;;7.20;;
34459;SDS011;20704;51.260;22.558;2023-11-21T09:25:58;13.10;;;6.27;;
34459;SDS011;20704;51.260;22.558;2023-11-21T09:28:05;13.07;;;7.83;;
34459;SDS011;20704;51.260;22.558;2023-11-21T09:30:11;11.57;;;6.33;;
34459;SDS011;20704;51.260;22.558;2023-11-21T09:32:16;10.57;;;5.83;;
34459;SDS011;20704;51.260;22.558;2023-11-21T09:34:20;12.30;;;5.87;;
34459;SDS011;20704;51.260;22.558;2023-11-21T09:36:23;14.93;;;7.73;;
34459;SDS011;20704;51.260;22.558;2023-11-21T09:38:29;12.73;;;7.93;;
34459;SDS011;20704;51.260;22.558;2023-11-21T09:40:32;13.27;;;6.87;;
34459;SDS011;20704;51.260;22.558;2023-11-21T09:42:38;10.60;;;6.60;;
34459;SDS011;20704;51.260;22.558;2023-11-21T09:45:03;12.43;;;6.95;;
34459;SDS011;20704;51.260;22.558;2023-11-21T09:47:13;14.93;;;7.87;;
34459;SDS011;20704;51.260;22.558;2023-11-21T09:49:18;11.07;;;6.40;;
34459;SDS011;20704;51.260;22.558;2023-11-21T09:51:27;12.35;;;6.10;;
34459;SDS011;20704;51.260;22.558;2023-11-21T09:53:32;14.03;;;7.57;;
34459;SDS011;20704;51.260;22.558;2023-11-21T09:55:37;12.83;;;6.70;;
34459;SDS011;20704;51.260;22.558;2023-11-21T09:57:42;12.27;;;6.60;;
34459;SDS011;20704;51.260;22.558;2023-11-21T09:59:44;15.73;;;7.77;;
34459;SDS011;20704;51.260;22.558;2023-11-21T10:01:48;17.33;;;7.57;;
34459;SDS011;20704;51.260;22.558;2023-11-21T10:03:52;12.03;;;7.23;;
34459;SDS011;20704;51.260;22.558;2023-11-21T10:05:56;13.77;;;7.30;;
34459;SDS011;20704;51.260;22.558;2023-11-21T10:08:12;14.97;;;7.37;;
34459;SDS011;20704;51.260;22.558;2023-11-21T10:10:14;11.50;;;6.80;;
34459;SDS011;20704;51.260;22.558;2023-11-21T10:12:21;13.30;;;7.13;;
34459;SDS011;20704;51.260;22.558;2023-11-21T10:14:25;14.23;;;7.00;;
34459;SDS011;20704;51.260;22.558;2023-11-21T10:16:30;10.60;;;6.17;;
34459;SDS011;20704;51.260;22.558;2023-11-21T10:18:34;15.90;;;6.90;;
34459;SDS011;20704;51.260;22.558;2023-11-21T10:20:39;13.80;;;7.00;;
34459;SDS011;20704;51.260;22.558;2023-11-21T10:22:42;15.20;;;7.13;;
34459;SDS011;20704;51.260;22.558;2023-11-21T10:24:45;16.30;;;8.70;;
34459;SDS011;20704;51.260;22.558;2023-11-21T10:26:54;12.15;;;6.60;;
34459;SDS011;20704;51.260;22.558;2023-11-21T10:28:57;16.67;;;7.73;;
34459;SDS011;20704;51.260;22.558;2023-11-21T10:31:00;14.63;;;8.10;;
34459;SDS011;20704;51.260;22.558;2023-11-21T10:33:03;14.77;;;7.47;;
34459;SDS011;20704;51.260;22.558;2023-11-21T10:35:07;15.30;;;6.97;;
34459;SDS011;20704;51.260;22.558;2023-11-21T10:37:12;15.23;;;8.37;;
34459;SDS011;20704;51.260;22.558;2023-11-21T10:39:17;12.00;;;6.30;;
34459;SDS011;20704;51.260;22.558;2023-11-21T10:41:25;14.57;;;7.67;;
34459;SDS011;20704;51.260;22.558;2023-11-21T10:43:28;15.83;;;8.37;;
34459;SDS011;20704;51.260;22.558;2023-11-21T10:45:32;12.87;;;6.63;;
34459;SDS011;20704;51.260;22.558;2023-11-21T10:47:35;16.67;;;8.03;;
34459;SDS011;20704;51.260;22.558;2023-11-21T10:49:38;12.67;;;6.90;;
34459;SDS011;20704;51.260;22.558;2023-11-21T10:51:43;13.73;;;7.17;;
34459;SDS011;20704;51.260;22.558;2023-11-21T10:53:46;13.77;;;7.97;;
34459;SDS011;20704;51.260;22.558;2023-11-21T10:55:49;16.13;;;8.17;;
34459;SDS011;20704;51.260;22.558;2023-11-21T10:57:54;14.13;;;8.40;;
34459;SDS011;20704;51.260;22.558;2023-11-21T10:59:59;14.83;;;8.60;;
34459;SDS011;20704;51.260;22.558;2023-11-21T11:02:02;12.23;;;7.33;;
34459;SDS011;20704;51.260;22.558;2023-11-21T11:04:34;13.90;;;7.83;;
34459;SDS011;20704;51.260;22.558;2023-11-21T11:06:41;13.17;;;6.70;;
34459;SDS011;20704;51.260;22.558;2023-11-21T11:08:46;15.63;;;7.83;;
34459;SDS011;20704;51.260;22.558;2023-11-21T11:10:51;15.40;;;7.60;;
34459;SDS011;20704;51.260;22.558;2023-11-21T11:12:54;12.47;;;7.63;;
34459;SDS011;20704;51.260;22.558;2023-11-21T11:14:57;16.93;;;8.23;;
34459;SDS011;20704;51.260;22.558;2023-11-21T11:17:00;13.20;;;7.10;;
34459;SDS011;20704;51.260;22.558;2023-11-21T11:19:04;17.37;;;8.83;;
34459;SDS011;20704;51.260;22.558;2023-11-21T11:26:12;18.73;;;8.13;;
34459;SDS011;20704;51.260;22.558;2023-11-21T11:28:51;15.93;;;8.03;;
34459;SDS011;20704;51.260;22.558;2023-11-21T11:31:11;16.10;;;7.63;;
34459;SDS011;20704;51.260;22.558;2023-11-21T11:33:42;14.97;;;7.97;;
34459;SDS011;20704;51.260;22.558;2023-11-21T11:35:59;12.87;;;7.80;;
34459;SDS011;20704;51.260;22.558;2023-11-21T11:38:15;17.50;;;7.80;;
34459;SDS011;20704;51.260;22.558;2023-11-21T11:40:17;17.83;;;7.77;;
34459;SDS011;20704;51.260;22.558;2023-11-21T11:42:24;15.70;;;8.33;;
34459;SDS011;20704;51.260;22.558;2023-11-21T11:44:48;14.50;;;7.83;;
34459;SDS011;20704;51.260;22.558;2023-11-21T11:46:57;15.07;;;8.00;;
34459;SDS011;20704;51.260;22.558;2023-11-21T11:49:04;13.23;;;7.70;;
34459;SDS011;20704;51.260;22.558;2023-11-21T11:53:17;15.77;;;8.00;;
34459;SDS011;20704;51.260;22.558;2023-11-21T11:55:23;17.90;;;8.80;;
34459;SDS011;20704;51.260;22.558;2023-11-21T11:57:26;19.63;;;8.93;;
34459;SDS011;20704;51.260;22.558;2023-11-21T12:00:22;12.87;;;7.27;;
34459;SDS011;20704;51.260;22.558;2023-11-21T12:02:10;15.03;;;7.23;;
34459;SDS011;20704;51.260;22.558;2023-11-21T12:06:16;21.23;;;7.97;;
34459;SDS011;20704;51.260;22.558;2023-11-21T12:08:20;13.97;;;8.23;;
34459;SDS011;20704;51.260;22.558;2023-11-21T12:10:26;13.67;;;7.23;;
34459;SDS011;20704;51.260;22.558;2023-11-21T12:12:30;17.87;;;8.63;;
34459;SDS011;20704;51.260;22.558;2023-11-21T12:14:35;14.10;;;7.90;;